createdAt,value
2018-12-30T00:00:14.871Z,17.87
2018-12-30T00:02:43.299Z,17.67
2018-12-30T00:05:12.350Z,16.95
2018-12-30T00:07:40.773Z,16.85
2018-12-30T00:10:09.202Z,15.58
2018-12-30T00:12:37.636Z,16.40
2018-12-30T00:15:06.124Z,15.32
2018-12-30T00:17:34.549Z,15.03
2018-12-30T00:20:03.315Z,12.78
2018-12-30T00:22:31.827Z,13.83
2018-12-30T00:25:00.250Z,15.93
2018-12-30T00:27:28.682Z,13.25
2018-12-30T00:29:57.445Z,13.30
2018-12-30T00:32:26.153Z,14.58
2018-12-30T00:34:55.006Z,13.43
2018-12-30T00:37:23.558Z,12.15
2018-12-30T00:39:52.049Z,11.55
2018-12-30T00:42:20.487Z,13.45
2018-12-30T00:44:48.915Z,12.53
2018-12-30T00:47:17.422Z,12.10
2018-12-30T00:49:45.919Z,13.22
2018-12-30T00:52:14.354Z,12.85
2018-12-30T00:54:42.774Z,11.15
2018-12-30T00:57:11.206Z,11.97
2018-12-30T00:59:40.011Z,12.80
2018-12-30T01:02:08.438Z,11.85
2018-12-30T01:04:36.867Z,13.13
2018-12-30T01:07:05.520Z,12.20
2018-12-30T01:09:34.014Z,11.53
2018-12-30T01:12:02.437Z,12.65
2018-12-30T01:14:31.512Z,14.10
2018-12-30T01:16:59.930Z,12.35
2018-12-30T01:19:28.366Z,13.32
2018-12-30T01:21:56.791Z,12.23
2018-12-30T01:24:25.217Z,12.80
2018-12-30T01:26:53.647Z,11.95
2018-12-30T01:29:22.158Z,11.95
2018-12-30T01:31:50.657Z,11.83
2018-12-30T01:34:19.293Z,13.50
2018-12-30T01:36:47.844Z,11.83
2018-12-30T01:39:16.365Z,11.73
2018-12-30T01:41:45.166Z,11.70
2018-12-30T01:44:13.602Z,14.00
2018-12-30T01:46:42.021Z,11.55
2018-12-30T01:49:10.537Z,12.18
2018-12-30T01:51:39.039Z,12.33
2018-12-30T01:54:07.474Z,12.35
2018-12-30T01:56:36.119Z,12.90
2018-12-30T01:59:04.881Z,14.10
2018-12-30T02:01:33.357Z,12.85
2018-12-30T02:04:01.812Z,12.25
2018-12-30T02:06:30.236Z,11.70
2018-12-30T02:08:58.928Z,12.47
2018-12-30T02:11:27.365Z,10.58
2018-12-30T02:13:55.801Z,13.38
2018-12-30T02:16:24.243Z,10.28
2018-12-30T02:18:52.897Z,12.60
2018-12-30T02:21:21.655Z,12.35
2018-12-30T02:23:50.341Z,12.58
2018-12-30T02:26:18.855Z,12.20
2018-12-30T02:28:47.269Z,12.68
2018-12-30T02:31:15.700Z,12.20
2018-12-30T02:33:44.122Z,11.05
2018-12-30T02:36:12.559Z,12.15
2018-12-30T02:38:41.154Z,11.70
2018-12-30T02:41:09.589Z,10.68
2018-12-30T02:43:38.016Z,11.35
2018-12-30T02:46:06.438Z,12.15
2018-12-30T02:48:35.090Z,12.00
2018-12-30T02:51:03.819Z,9.03
2018-12-30T02:53:32.309Z,12.18
2018-12-30T02:56:00.738Z,9.70
2018-12-30T02:58:29.176Z,11.12
2018-12-30T03:00:57.599Z,8.73
2018-12-30T03:03:26.039Z,11.53
2018-12-30T03:05:54.538Z,11.35
2018-12-30T03:08:23.174Z,10.15
2018-12-30T03:10:51.627Z,10.80
2018-12-30T03:13:20.073Z,10.50
2018-12-30T03:15:48.493Z,11.18
2018-12-30T03:18:16.931Z,10.30
2018-12-30T03:20:45.358Z,12.03
2018-12-30T03:23:13.795Z,12.50
2018-12-30T03:25:42.224Z,10.95
2018-12-30T03:28:10.658Z,11.43
2018-12-30T03:30:39.079Z,11.90
2018-12-30T03:33:07.514Z,11.15
2018-12-30T03:35:35.924Z,10.98
2018-12-30T03:38:04.366Z,12.85
2018-12-30T03:40:32.797Z,10.72
2018-12-30T03:43:01.692Z,12.23
2018-12-30T03:45:30.398Z,11.08
2018-12-30T03:47:58.834Z,11.90
2018-12-30T03:50:27.471Z,12.10
2018-12-30T03:52:56.182Z,10.45
2018-12-30T03:55:24.874Z,11.57
2018-12-30T03:57:53.554Z,14.03
2018-12-30T04:00:22.284Z,12.15
2018-12-30T04:02:50.707Z,14.05
2018-12-30T04:05:19.355Z,12.63
2018-12-30T04:07:47.813Z,12.93
2018-12-30T04:10:16.262Z,13.48
2018-12-30T04:12:44.674Z,13.43
2018-12-30T04:15:13.138Z,12.73
2018-12-30T04:17:41.561Z,15.50
2018-12-30T04:20:09.996Z,13.18
2018-12-30T04:22:38.434Z,14.55
2018-12-30T04:25:06.945Z,13.20
2018-12-30T04:27:35.372Z,13.90
2018-12-30T04:30:04.651Z,13.53
2018-12-30T04:32:33.302Z,13.35
2018-12-30T04:35:01.803Z,14.85
2018-12-30T04:37:30.232Z,14.53
2018-12-30T04:39:58.674Z,14.43
2018-12-30T04:42:27.095Z,14.20
2018-12-30T04:44:55.525Z,12.40
2018-12-30T04:47:23.954Z,12.80
2018-12-30T04:49:52.384Z,13.43
2018-12-30T04:52:25.550Z,13.85
2018-12-30T04:54:51.233Z,12.65
2018-12-30T04:57:19.875Z,14.75
2018-12-30T04:59:48.353Z,14.58
2018-12-30T05:02:17.027Z,14.87
2018-12-30T05:04:45.462Z,11.65
2018-12-30T05:07:13.887Z,14.23
2018-12-30T05:09:42.323Z,13.93
2018-12-30T05:12:10.992Z,10.13
2018-12-30T05:14:39.646Z,13.22
2018-12-30T05:17:08.117Z,13.93
2018-12-30T05:19:36.770Z,12.40
2018-12-30T05:22:05.226Z,14.28
2018-12-30T05:24:33.703Z,14.03
2018-12-30T05:27:02.176Z,14.28
2018-12-30T05:29:30.622Z,15.05
2018-12-30T05:31:59.053Z,13.38
2018-12-30T05:34:27.475Z,15.65
2018-12-30T05:36:55.905Z,16.25
2018-12-30T05:39:24.569Z,15.18
2018-12-30T05:41:53.300Z,14.50
2018-12-30T05:44:21.730Z,15.08
2018-12-30T05:46:50.173Z,17.10
2018-12-30T05:49:18.593Z,15.78
2018-12-30T05:51:47.044Z,16.85
2018-12-30T05:54:15.462Z,17.10
2018-12-30T05:56:43.893Z,12.68
2018-12-30T05:59:12.326Z,15.08
2018-12-30T06:01:40.762Z,15.65
2018-12-30T06:04:09.178Z,17.48
2018-12-30T06:06:37.844Z,14.38
2018-12-30T06:09:06.539Z,16.65
2018-12-30T06:11:35.018Z,15.63
2018-12-30T06:14:03.665Z,13.58
2018-12-30T06:16:32.139Z,15.15
2018-12-30T06:19:00.566Z,15.25
2018-12-30T06:21:29.001Z,14.75
2018-12-30T06:23:57.429Z,15.03
2018-12-30T06:26:25.864Z,14.85
2018-12-30T06:28:54.378Z,12.75
2018-12-30T06:31:22.818Z,14.15
2018-12-30T06:33:57.378Z,14.03
2018-12-30T06:36:25.810Z,12.85
2018-12-30T06:38:54.234Z,14.28
2018-12-30T06:41:22.676Z,13.90
2018-12-30T06:43:51.098Z,15.18
2018-12-30T06:46:20.119Z,16.10
2018-12-30T06:48:48.768Z,13.43
2018-12-30T06:51:17.504Z,14.23
2018-12-30T06:53:45.931Z,13.70
2018-12-30T06:56:14.373Z,14.78
2018-12-30T06:58:43.019Z,13.05
2018-12-30T07:01:11.509Z,13.90
2018-12-30T07:03:40.167Z,12.18
2018-12-30T07:06:08.639Z,12.40
2018-12-30T07:08:37.056Z,13.20
2018-12-30T07:11:05.491Z,13.03
2018-12-30T07:13:33.922Z,12.98
2018-12-30T07:16:02.350Z,12.98
2018-12-30T07:18:31.001Z,13.40
2018-12-30T07:20:59.468Z,12.95
2018-12-30T07:23:27.895Z,11.90
2018-12-30T07:25:56.318Z,12.18
2018-12-30T07:28:24.754Z,11.60
2018-12-30T07:30:53.458Z,11.78
2018-12-30T07:33:23.123Z,9.45
2018-12-30T07:35:51.632Z,10.45
2018-12-30T07:38:20.057Z,11.53
2018-12-30T07:40:48.477Z,8.50
2018-12-30T07:43:16.917Z,11.50
2018-12-30T07:45:45.338Z,12.00
2018-12-30T07:48:13.764Z,10.50
2018-12-30T07:50:42.181Z,10.48
2018-12-30T07:53:13.936Z,10.75
2018-12-30T07:55:40.769Z,12.47
2018-12-30T07:58:09.205Z,8.73
2018-12-30T08:00:37.633Z,11.33
2018-12-30T08:03:06.065Z,12.15
2018-12-30T08:05:34.740Z,11.88
2018-12-30T08:08:03.178Z,13.45
2018-12-30T08:10:31.600Z,12.93
2018-12-30T08:13:00.050Z,12.75
2018-12-30T08:15:28.457Z,12.65
2018-12-30T08:17:56.900Z,13.60
2018-12-30T08:20:25.319Z,12.33
2018-12-30T08:22:54.039Z,13.70
2018-12-30T08:25:22.463Z,13.88
2018-12-30T08:27:50.899Z,16.17
2018-12-30T08:30:19.548Z,12.60
2018-12-30T08:32:47.999Z,13.38
2018-12-30T08:35:16.431Z,13.80
2018-12-30T08:37:44.891Z,13.15
2018-12-30T08:40:13.327Z,11.93
2018-12-30T08:42:41.831Z,13.88
2018-12-30T08:45:11.536Z,13.35
2018-12-30T08:47:39.997Z,14.20
2018-12-30T08:50:08.439Z,13.53
2018-12-30T08:52:36.871Z,13.93
2018-12-30T08:55:05.700Z,14.23
2018-12-30T08:57:34.181Z,15.15
2018-12-30T09:00:02.865Z,13.55
2018-12-30T09:02:31.332Z,16.27
2018-12-30T09:04:59.778Z,12.95
2018-12-30T09:07:28.428Z,12.45
2018-12-30T09:09:56.922Z,12.07
2018-12-30T09:12:25.604Z,13.22
2018-12-30T09:14:54.265Z,13.40
2018-12-30T09:17:22.742Z,11.95
2018-12-30T09:19:51.247Z,10.43
2018-12-30T09:22:20.102Z,13.35
2018-12-30T09:24:48.843Z,11.70
2018-12-30T09:27:17.282Z,8.35
2018-12-30T09:29:45.909Z,13.70
2018-12-30T09:32:14.352Z,11.97
2018-12-30T09:34:43.044Z,11.30
2018-12-30T09:37:11.758Z,11.03
2018-12-30T09:39:40.247Z,12.15
2018-12-30T09:42:08.989Z,13.53
2018-12-30T09:44:37.468Z,12.30
2018-12-30T09:47:06.124Z,11.55
2018-12-30T09:49:34.611Z,11.93
2018-12-30T09:52:03.308Z,11.68
2018-12-30T09:54:31.758Z,11.60
2018-12-30T09:57:00.197Z,12.75
2018-12-30T09:59:28.663Z,12.45
2018-12-30T10:01:57.357Z,10.95
2018-12-30T10:04:25.792Z,11.33
2018-12-30T10:06:54.223Z,12.13
2018-12-30T10:09:22.879Z,9.00
2018-12-30T10:11:51.354Z,11.48
2018-12-30T10:14:19.793Z,10.65
2018-12-30T10:16:48.267Z,11.70
2018-12-30T10:19:16.909Z,11.65
2018-12-30T10:21:45.386Z,10.80
2018-12-30T10:24:13.908Z,11.80
2018-12-30T10:26:42.350Z,11.22
2018-12-30T10:29:11.039Z,11.83
2018-12-30T10:31:39.487Z,10.65
2018-12-30T10:34:08.034Z,10.23
2018-12-30T10:36:36.499Z,11.25
2018-12-30T10:39:05.902Z,10.53
2018-12-30T10:41:34.343Z,10.82
2018-12-30T10:44:02.954Z,11.12
2018-12-30T10:46:31.609Z,10.00
2018-12-30T10:49:00.083Z,9.30
2018-12-30T10:51:28.526Z,8.60
2018-12-30T10:54:00.597Z,8.43
2018-12-30T10:56:27.115Z,8.75
2018-12-30T10:58:55.548Z,8.58
2018-12-30T11:01:23.992Z,8.25
2018-12-30T11:03:52.674Z,8.13
2018-12-30T11:06:21.122Z,8.40
2018-12-30T11:08:49.550Z,6.85
2018-12-30T11:11:18.215Z,7.55
2018-12-30T11:13:46.906Z,8.15
2018-12-30T11:16:15.689Z,5.83
2018-12-30T11:18:44.162Z,8.43
2018-12-30T11:21:12.603Z,8.10
2018-12-30T11:23:41.044Z,7.53
2018-12-30T11:26:09.677Z,7.95
2018-12-30T11:28:38.147Z,8.45
2018-12-30T11:31:06.587Z,7.87
2018-12-30T11:33:35.015Z,8.20
2018-12-30T11:36:03.526Z,8.28
2018-12-30T11:38:31.968Z,9.05
2018-12-30T11:41:00.635Z,6.90
2018-12-30T11:43:29.075Z,9.18
2018-12-30T11:45:57.571Z,8.20
2018-12-30T11:48:25.967Z,9.43
2018-12-30T11:50:54.443Z,9.00
2018-12-30T11:53:22.875Z,8.75
2018-12-30T11:55:51.303Z,8.10
2018-12-30T11:58:19.964Z,7.42
2018-12-30T12:00:48.425Z,8.28
2018-12-30T12:03:16.860Z,9.28
2018-12-30T12:05:45.535Z,6.92
2018-12-30T12:08:13.978Z,7.10
2018-12-30T12:10:42.655Z,8.48
2018-12-30T12:13:11.094Z,7.40
2018-12-30T12:15:39.527Z,7.78
2018-12-30T12:18:07.971Z,7.78
2018-12-30T12:20:36.549Z,8.35
2018-12-30T12:23:05.026Z,7.08
2018-12-30T12:25:33.694Z,9.08
2018-12-30T12:28:02.358Z,7.53
2018-12-30T12:30:30.827Z,7.47
2018-12-30T12:32:59.261Z,7.20
2018-12-30T12:35:27.698Z,7.37
2018-12-30T12:37:56.155Z,7.45
2018-12-30T12:40:24.585Z,6.37
2018-12-30T12:42:53.076Z,7.75
2018-12-30T12:45:21.503Z,7.62
2018-12-30T12:47:49.955Z,6.97
2018-12-30T12:50:18.386Z,7.10
2018-12-30T12:52:47.098Z,6.62
2018-12-30T12:55:15.549Z,6.83
2018-12-30T12:57:43.996Z,6.37
2018-12-30T13:00:12.850Z,6.67
2018-12-30T13:02:41.283Z,6.58
2018-12-30T13:05:09.976Z,5.78
2018-12-30T13:07:38.650Z,5.97
2018-12-30T13:10:09.823Z,6.17
2018-12-30T13:12:38.255Z,6.60
2018-12-30T13:15:07.938Z,6.37
2018-12-30T13:17:36.371Z,5.17
2018-12-30T13:20:05.743Z,6.10
2018-12-30T13:22:34.435Z,5.35
2018-12-30T13:25:02.891Z,5.97
2018-12-30T13:27:31.315Z,6.60
2018-12-30T13:29:59.983Z,6.17
2018-12-30T13:32:28.439Z,6.37
2018-12-30T13:34:56.879Z,6.30
2018-12-30T13:37:25.317Z,5.30
2018-12-30T13:39:54.053Z,5.80
2018-12-30T13:42:22.514Z,6.85
2018-12-30T13:44:50.958Z,5.80
2018-12-30T13:47:19.635Z,5.80
2018-12-30T13:49:48.067Z,5.33
2018-12-30T13:52:16.553Z,6.75
2018-12-30T13:54:47.901Z,6.20
2018-12-30T13:57:15.402Z,5.78
2018-12-30T13:59:44.134Z,6.20
2018-12-30T14:02:12.558Z,5.47
2018-12-30T14:04:41.003Z,5.73
2018-12-30T14:07:09.426Z,5.45
2018-12-30T14:09:37.863Z,6.78
2018-12-30T14:12:06.297Z,6.50
2018-12-30T14:14:34.779Z,6.30
2018-12-30T14:17:03.203Z,6.03
2018-12-30T14:19:31.658Z,5.70
2018-12-30T14:22:00.075Z,6.33
2018-12-30T14:24:28.679Z,4.65
2018-12-30T14:26:59.902Z,6.50
2018-12-30T14:29:27.329Z,6.45
2018-12-30T14:31:55.794Z,5.45
2018-12-30T14:34:24.222Z,6.30
2018-12-30T14:36:52.890Z,6.20
2018-12-30T14:39:21.789Z,5.60
2018-12-30T14:41:50.289Z,6.10
2018-12-30T14:44:21.391Z,5.60
2018-12-30T14:46:49.834Z,5.65
2018-12-30T14:49:18.515Z,6.00
2018-12-30T14:51:47.172Z,6.10
2018-12-30T14:54:15.648Z,4.90
2018-12-30T14:56:44.082Z,6.37
2018-12-30T14:59:12.517Z,6.45
2018-12-30T15:01:42.623Z,5.60
2018-12-30T15:04:11.051Z,6.15
2018-12-30T15:06:39.499Z,6.37
2018-12-30T15:09:08.098Z,6.20
2018-12-30T15:11:36.552Z,5.95
2018-12-30T15:14:04.973Z,6.37
2018-12-30T15:16:33.439Z,5.45
2018-12-30T15:19:01.870Z,5.70
2018-12-30T15:21:30.315Z,6.28
2018-12-30T15:23:58.754Z,6.00
2018-12-30T15:26:27.357Z,4.80
2018-12-30T15:28:55.946Z,4.78
2018-12-30T15:31:24.435Z,5.30
2018-12-30T15:33:52.867Z,5.53
2018-12-30T15:36:21.332Z,5.15
2018-12-30T15:38:49.751Z,5.70
2018-12-30T15:41:18.215Z,5.75
2018-12-30T15:43:46.646Z,5.95
2018-12-30T15:46:15.090Z,5.65
2018-12-30T15:48:43.520Z,5.50
2018-12-30T15:51:11.947Z,5.15
2018-12-30T15:53:41.457Z,5.10
2018-12-30T15:56:09.901Z,5.62
2018-12-30T15:58:38.384Z,5.50
2018-12-30T16:01:06.852Z,4.72
2018-12-30T16:03:35.281Z,5.08
2018-12-30T16:06:03.785Z,5.22
2018-12-30T16:08:32.221Z,5.30
2018-12-30T16:11:00.648Z,5.40
2018-12-30T16:13:29.078Z,6.30
2018-12-30T16:15:57.514Z,4.65
2018-12-30T16:18:25.951Z,4.78
2018-12-30T16:20:54.643Z,6.42
2018-12-30T16:23:23.088Z,5.95
2018-12-30T16:25:51.512Z,5.50
2018-12-30T16:28:19.961Z,5.87
2018-12-30T16:30:48.647Z,5.25
2018-12-30T16:33:17.074Z,5.40
2018-12-30T16:35:45.503Z,5.00
2018-12-30T16:38:13.951Z,6.20
2018-12-30T16:40:42.559Z,5.65
2018-12-30T16:43:10.999Z,5.20
2018-12-30T16:45:39.523Z,5.53
2018-12-30T16:48:09.380Z,6.53
2018-12-30T16:50:37.805Z,5.25
2018-12-30T16:53:06.243Z,5.92
2018-12-30T16:55:34.955Z,6.00
2018-12-30T16:58:03.704Z,5.30
2018-12-30T17:00:32.135Z,4.95
2018-12-30T17:03:00.645Z,4.78
2018-12-30T17:05:29.062Z,4.70
2018-12-30T17:07:57.514Z,4.80
2018-12-30T17:10:25.969Z,6.83
2018-12-30T17:12:54.462Z,5.50
2018-12-30T17:15:22.912Z,5.30
2018-12-30T17:17:51.350Z,5.97
2018-12-30T17:20:19.797Z,6.15
2018-12-30T17:22:48.214Z,6.50
2018-12-30T17:25:16.739Z,6.12
2018-12-30T17:27:45.209Z,7.45
2018-12-30T17:30:13.664Z,6.50
2018-12-30T17:32:42.094Z,7.37
2018-12-30T17:35:10.538Z,6.15
2018-12-30T17:37:38.962Z,7.03
2018-12-30T17:40:07.855Z,5.87
2018-12-30T17:42:36.281Z,6.17
2018-12-30T17:45:06.177Z,6.92
2018-12-30T17:47:34.606Z,6.50
2018-12-30T17:50:03.124Z,5.22
2018-12-30T17:52:31.566Z,5.67
2018-12-30T17:54:59.995Z,5.50
2018-12-30T17:57:28.445Z,6.58
2018-12-30T17:59:56.939Z,6.67
2018-12-30T18:02:25.470Z,6.30
2018-12-30T18:04:53.910Z,5.90
2018-12-30T18:07:22.344Z,6.35
2018-12-30T18:09:50.778Z,6.65
2018-12-30T18:12:19.241Z,6.90
2018-12-30T18:14:47.694Z,6.40
2018-12-30T18:17:16.216Z,7.15
2018-12-30T18:19:44.746Z,6.15
2018-12-30T18:22:13.283Z,6.95
2018-12-30T18:24:41.710Z,7.15
2018-12-30T18:27:10.161Z,6.40
2018-12-30T18:29:40.243Z,6.62
2018-12-30T18:32:08.725Z,6.37
2018-12-30T18:34:37.238Z,7.77
2018-12-30T18:37:05.747Z,6.95
2018-12-30T18:39:34.188Z,6.42
2018-12-30T18:42:02.729Z,7.17
2018-12-30T18:44:31.307Z,5.55
2018-12-30T18:46:59.835Z,6.35
2018-12-30T18:49:28.247Z,5.62
2018-12-30T18:51:56.712Z,6.05
2018-12-30T18:54:25.129Z,6.20
2018-12-30T18:56:53.546Z,5.70
2018-12-30T18:59:22.009Z,5.83
2018-12-30T19:01:50.453Z,6.47
2018-12-30T19:04:18.878Z,6.65
2018-12-30T19:06:47.329Z,6.40
2018-12-30T19:09:15.764Z,5.87
2018-12-30T19:11:44.270Z,6.22
2018-12-30T19:14:12.701Z,5.90
2018-12-30T19:16:41.135Z,6.75
2018-12-30T19:19:09.792Z,6.50
2018-12-30T19:21:38.279Z,6.00
2018-12-30T19:24:09.711Z,6.50
2018-12-30T19:26:38.158Z,5.22
2018-12-30T19:29:06.608Z,6.20
2018-12-30T19:31:35.042Z,5.70
2018-12-30T19:34:03.490Z,6.12
2018-12-30T19:36:31.912Z,6.53
2018-12-30T19:39:00.373Z,5.78
2018-12-30T19:41:28.798Z,6.33
2018-12-30T19:43:57.236Z,6.25
2018-12-30T19:46:25.882Z,6.30
2018-12-30T19:48:54.396Z,5.87
2018-12-30T19:51:22.819Z,6.80
2018-12-30T19:53:51.263Z,5.00
2018-12-30T19:56:22.109Z,5.55
2018-12-30T19:58:49.850Z,6.10
2018-12-30T20:01:18.268Z,5.35
2018-12-30T20:03:46.746Z,6.12
2018-12-30T20:06:15.218Z,6.03
2018-12-30T20:08:43.676Z,7.37
2018-12-30T20:11:12.103Z,5.62
2018-12-30T20:13:40.566Z,6.47
2018-12-30T20:16:09.124Z,6.03
2018-12-30T20:18:37.620Z,6.28
2018-12-30T20:21:06.115Z,6.42
2018-12-30T20:23:34.559Z,7.05
2018-12-30T20:26:03.226Z,6.80
2018-12-30T20:28:31.681Z,6.67
2018-12-30T20:31:00.124Z,5.03
2018-12-30T20:33:28.555Z,5.60
2018-12-30T20:35:56.987Z,5.63
2018-12-30T20:38:25.414Z,5.33
2018-12-30T20:40:53.932Z,5.23
2018-12-30T20:43:22.346Z,5.25
2018-12-30T20:45:50.884Z,5.30
2018-12-30T20:48:19.324Z,5.12
2018-12-30T20:50:47.986Z,6.00
2018-12-30T20:53:16.689Z,6.00
2018-12-30T20:55:45.196Z,6.47
2018-12-30T20:58:13.613Z,4.60
2018-12-30T21:00:42.080Z,5.30
2018-12-30T21:03:10.498Z,5.90
2018-12-30T21:05:38.936Z,4.78
2018-12-30T21:08:07.380Z,5.40
2018-12-30T21:10:36.033Z,4.60
2018-12-30T21:13:04.533Z,5.85
2018-12-30T21:15:32.979Z,5.47
2018-12-30T21:18:01.401Z,5.33
2018-12-30T21:20:29.862Z,8.10
2018-12-30T21:22:58.543Z,4.67
2018-12-30T21:25:27.172Z,5.40
2018-12-30T21:27:55.641Z,6.20
2018-12-30T21:30:24.062Z,5.80
2018-12-30T21:32:52.746Z,6.62
2018-12-30T21:35:21.165Z,5.55
2018-12-30T21:37:49.589Z,5.00
2018-12-30T21:40:18.003Z,5.00
2018-12-30T21:42:46.640Z,5.62
2018-12-30T21:45:15.097Z,5.12
2018-12-30T21:47:43.530Z,6.08
2018-12-30T21:50:12.206Z,5.40
2018-12-30T21:52:40.646Z,7.15
2018-12-30T21:55:09.062Z,5.42
2018-12-30T21:57:37.489Z,5.62
2018-12-30T22:00:08.354Z,7.03
2018-12-30T22:02:37.033Z,5.37
2018-12-30T22:05:05.814Z,5.92
2018-12-30T22:07:34.245Z,11.08
2018-12-30T22:10:03.448Z,7.90
2018-12-30T22:12:31.883Z,5.67
2018-12-30T22:15:00.316Z,5.97
2018-12-30T22:17:29.949Z,5.70
2018-12-30T22:19:58.375Z,5.50
2018-12-30T22:22:27.042Z,6.17
2018-12-30T22:24:55.478Z,6.28
2018-12-30T22:27:24.133Z,6.10
2018-12-30T22:29:52.593Z,5.62
2018-12-30T22:32:21.274Z,5.90
2018-12-30T22:34:49.702Z,6.40
2018-12-30T22:37:18.129Z,5.40
2018-12-30T22:39:46.638Z,6.90
2018-12-30T22:42:15.054Z,5.83
2018-12-30T22:44:43.735Z,5.78
2018-12-30T22:47:12.154Z,6.58
2018-12-30T22:49:40.587Z,6.65
2018-12-30T22:52:09.005Z,6.35
2018-12-30T22:54:37.657Z,6.42
2018-12-30T22:57:06.126Z,6.95
2018-12-30T22:59:34.828Z,7.05
2018-12-30T23:02:03.414Z,6.85
2018-12-30T23:04:31.849Z,7.00
2018-12-30T23:07:00.514Z,6.42
2018-12-30T23:09:28.942Z,6.00
2018-12-30T23:11:57.365Z,7.90
2018-12-30T23:14:25.796Z,6.35
2018-12-30T23:16:54.211Z,7.05
2018-12-30T23:19:22.646Z,8.18
2018-12-30T23:21:51.068Z,6.80
2018-12-30T23:24:19.706Z,6.58
2018-12-30T23:26:48.386Z,7.35
2018-12-30T23:29:16.869Z,7.90
2018-12-30T23:31:45.298Z,6.90
2018-12-30T23:34:13.722Z,7.42
2018-12-30T23:36:42.361Z,8.03
2018-12-30T23:39:10.822Z,7.60
2018-12-30T23:41:39.250Z,8.35
2018-12-30T23:44:09.299Z,6.40
2018-12-30T23:46:37.986Z,6.17
2018-12-30T23:49:06.408Z,7.05
2018-12-30T23:51:35.052Z,7.35
2018-12-30T23:54:03.513Z,6.22
2018-12-30T23:56:32.219Z,7.30
2018-12-30T23:59:00.629Z,7.08
